sensor_id;sensor_type;location;lat;lon;timestamp;P1;durP1;ratioP1;P2;durP2;ratioP2
37527;SDS011;23372;52.050;4.810;2023-05-20T00:00:30;8.53;;;5.03;;
37527;SDS011;23372;52.050;4.810;2023-05-20T00:02:55;10.93;;;4.70;;
37527;SDS011;23372;52.050;4.810;2023-05-20T00:05:21;11.73;;;4.90;;
37527;SDS011;23372;52.050;4.810;2023-05-20T00:07:47;8.57;;;4.57;;
37527;SDS011;23372;52.050;4.810;2023-05-20T00:10:13;16.17;;;4.97;;
37527;SDS011;23372;52.050;4.810;2023-05-20T00:12:38;7.57;;;4.53;;
37527;SDS011;23372;52.050;4.810;2023-05-20T00:15:04;13.13;;;4.97;;
37527;SDS011;23372;52.050;4.810;2023-05-20T00:17:30;8.13;;;4.70;;
37527;SDS011;23372;52.050;4.810;2023-05-20T00:19:56;10.73;;;5.00;;
37527;SDS011;23372;52.050;4.810;2023-05-20T00:22:24;13.63;;;5.27;;
37527;SDS011;23372;52.050;4.810;2023-05-20T00:24:50;12.07;;;5.27;;
37527;SDS011;23372;52.050;4.810;2023-05-20T00:27:16;13.07;;;5.27;;
37527;SDS011;23372;52.050;4.810;2023-05-20T00:29:41;9.47;;;5.07;;
37527;SDS011;23372;52.050;4.810;2023-05-20T00:32:07;12.27;;;5.27;;
37527;SDS011;23372;52.050;4.810;2023-05-20T00:34:32;8.50;;;5.00;;
37527;SDS011;23372;52.050;4.810;2023-05-20T00:36:58;8.10;;;5.27;;
37527;SDS011;23372;52.050;4.810;2023-05-20T00:39:23;16.70;;;5.00;;
37527;SDS011;23372;52.050;4.810;2023-05-20T00:41:49;9.70;;;4.87;;
37527;SDS011;23372;52.050;4.810;2023-05-20T00:44:15;15.30;;;5.03;;
37527;SDS011;23372;52.050;4.810;2023-05-20T00:46:42;9.90;;;4.73;;
37527;SDS011;23372;52.050;4.810;2023-05-20T00:49:08;9.53;;;5.33;;
37527;SDS011;23372;52.050;4.810;2023-05-20T00:51:34;11.47;;;5.53;;
37527;SDS011;23372;52.050;4.810;2023-05-20T00:54:00;11.90;;;5.23;;
37527;SDS011;23372;52.050;4.810;2023-05-20T00:56:27;16.50;;;5.97;;
37527;SDS011;23372;52.050;4.810;2023-05-20T00:58:53;10.60;;;5.70;;
37527;SDS011;23372;52.050;4.810;2023-05-20T01:01:20;10.63;;;5.30;;
37527;SDS011;23372;52.050;4.810;2023-05-20T01:03:45;11.67;;;5.33;;
37527;SDS011;23372;52.050;4.810;2023-05-20T01:06:12;15.37;;;5.90;;
37527;SDS011;23372;52.050;4.810;2023-05-20T01:08:38;14.47;;;5.40;;
37527;SDS011;23372;52.050;4.810;2023-05-20T01:11:08;14.87;;;5.60;;
37527;SDS011;23372;52.050;4.810;2023-05-20T01:13:46;15.33;;;5.63;;
37527;SDS011;23372;52.050;4.810;2023-05-20T01:16:19;9.83;;;5.43;;
37527;SDS011;23372;52.050;4.810;2023-05-20T01:18:48;12.67;;;5.40;;
37527;SDS011;23372;52.050;4.810;2023-05-20T01:21:15;16.03;;;5.77;;
37527;SDS011;23372;52.050;4.810;2023-05-20T01:23:42;11.40;;;5.07;;
37527;SDS011;23372;52.050;4.810;2023-05-20T01:26:08;11.00;;;4.90;;
37527;SDS011;23372;52.050;4.810;2023-05-20T01:28:41;10.17;;;5.97;;
37527;SDS011;23372;52.050;4.810;2023-05-20T01:31:12;11.33;;;5.57;;
37527;SDS011;23372;52.050;4.810;2023-05-20T01:33:40;14.23;;;6.40;;
37527;SDS011;23372;52.050;4.810;2023-05-20T01:36:07;15.73;;;6.10;;
37527;SDS011;23372;52.050;4.810;2023-05-20T01:38:34;11.40;;;5.57;;
37527;SDS011;23372;52.050;4.810;2023-05-20T01:41:01;12.90;;;4.97;;
37527;SDS011;23372;52.050;4.810;2023-05-20T01:43:28;12.87;;;6.87;;
37527;SDS011;23372;52.050;4.810;2023-05-20T01:45:54;10.17;;;5.97;;
37527;SDS011;23372;52.050;4.810;2023-05-20T01:48:20;11.60;;;5.93;;
37527;SDS011;23372;52.050;4.810;2023-05-20T01:50:45;17.27;;;7.33;;
37527;SDS011;23372;52.050;4.810;2023-05-20T01:53:11;11.50;;;5.93;;
37527;SDS011;23372;52.050;4.810;2023-05-20T01:55:37;13.77;;;5.87;;
37527;SDS011;23372;52.050;4.810;2023-05-20T01:58:03;12.83;;;5.77;;
37527;SDS011;23372;52.050;4.810;2023-05-20T02:00:31;12.70;;;5.90;;
37527;SDS011;23372;52.050;4.810;2023-05-20T02:02:58;11.13;;;6.50;;
37527;SDS011;23372;52.050;4.810;2023-05-20T02:05:23;11.80;;;5.50;;
37527;SDS011;23372;52.050;4.810;2023-05-20T02:07:49;15.93;;;6.20;;
37527;SDS011;23372;52.050;4.810;2023-05-20T02:10:15;12.00;;;5.53;;
37527;SDS011;23372;52.050;4.810;2023-05-20T02:12:41;13.50;;;6.00;;
37527;SDS011;23372;52.050;4.810;2023-05-20T02:15:07;12.90;;;6.27;;
37527;SDS011;23372;52.050;4.810;2023-05-20T02:17:32;12.70;;;6.27;;
37527;SDS011;23372;52.050;4.810;2023-05-20T02:19:58;10.70;;;6.23;;
37527;SDS011;23372;52.050;4.810;2023-05-20T02:22:24;9.33;;;5.73;;
37527;SDS011;23372;52.050;4.810;2023-05-20T02:24:49;11.67;;;5.67;;
37527;SDS011;23372;52.050;4.810;2023-05-20T02:27:15;14.67;;;6.57;;
37527;SDS011;23372;52.050;4.810;2023-05-20T02:29:41;14.67;;;7.27;;
37527;SDS011;23372;52.050;4.810;2023-05-20T02:32:08;10.23;;;5.93;;
37527;SDS011;23372;52.050;4.810;2023-05-20T02:34:33;16.43;;;6.73;;
37527;SDS011;23372;52.050;4.810;2023-05-20T02:36:59;12.43;;;6.50;;
37527;SDS011;23372;52.050;4.810;2023-05-20T02:39:25;14.10;;;6.27;;
37527;SDS011;23372;52.050;4.810;2023-05-20T02:41:52;15.00;;;6.47;;
37527;SDS011;23372;52.050;4.810;2023-05-20T02:44:17;17.87;;;6.60;;
37527;SDS011;23372;52.050;4.810;2023-05-20T02:46:43;12.03;;;5.83;;
37527;SDS011;23372;52.050;4.810;2023-05-20T02:49:09;18.73;;;6.50;;
37527;SDS011;23372;52.050;4.810;2023-05-20T02:51:35;17.30;;;6.83;;
37527;SDS011;23372;52.050;4.810;2023-05-20T02:54:00;13.83;;;6.10;;
37527;SDS011;23372;52.050;4.810;2023-05-20T02:56:26;11.63;;;6.70;;
37527;SDS011;23372;52.050;4.810;2023-05-20T02:58:52;12.87;;;6.97;;
37527;SDS011;23372;52.050;4.810;2023-05-20T03:01:18;18.23;;;6.90;;
37527;SDS011;23372;52.050;4.810;2023-05-20T03:03:44;12.47;;;6.00;;
37527;SDS011;23372;52.050;4.810;2023-05-20T03:06:09;13.37;;;6.33;;
37527;SDS011;23372;52.050;4.810;2023-05-20T03:08:37;11.90;;;6.63;;
37527;SDS011;23372;52.050;4.810;2023-05-20T03:11:03;17.27;;;6.37;;
37527;SDS011;23372;52.050;4.810;2023-05-20T03:13:29;14.33;;;6.63;;
37527;SDS011;23372;52.050;4.810;2023-05-20T03:15:55;16.37;;;6.30;;
37527;SDS011;23372;52.050;4.810;2023-05-20T03:18:20;19.40;;;6.80;;
37527;SDS011;23372;52.050;4.810;2023-05-20T03:20:46;13.73;;;6.40;;
37527;SDS011;23372;52.050;4.810;2023-05-20T03:23:12;15.10;;;6.53;;
37527;SDS011;23372;52.050;4.810;2023-05-20T03:25:37;11.83;;;6.07;;
37527;SDS011;23372;52.050;4.810;2023-05-20T03:28:04;12.50;;;7.03;;
37527;SDS011;23372;52.050;4.810;2023-05-20T03:30:30;10.70;;;6.30;;
37527;SDS011;23372;52.050;4.810;2023-05-20T03:32:57;13.20;;;7.50;;
37527;SDS011;23372;52.050;4.810;2023-05-20T03:35:23;11.43;;;5.63;;
37527;SDS011;23372;52.050;4.810;2023-05-20T03:37:49;12.20;;;6.60;;
37527;SDS011;23372;52.050;4.810;2023-05-20T03:40:18;14.40;;;6.77;;
37527;SDS011;23372;52.050;4.810;2023-05-20T03:42:46;12.97;;;5.60;;
37527;SDS011;23372;52.050;4.810;2023-05-20T03:45:14;12.70;;;6.37;;
37527;SDS011;23372;52.050;4.810;2023-05-20T03:47:39;16.57;;;6.23;;
37527;SDS011;23372;52.050;4.810;2023-05-20T03:50:05;13.37;;;6.37;;
37527;SDS011;23372;52.050;4.810;2023-05-20T03:52:31;13.10;;;6.03;;
37527;SDS011;23372;52.050;4.810;2023-05-20T03:54:57;11.17;;;5.90;;
37527;SDS011;23372;52.050;4.810;2023-05-20T03:57:22;14.17;;;6.20;;
37527;SDS011;23372;52.050;4.810;2023-05-20T03:59:48;13.43;;;5.93;;
37527;SDS011;23372;52.050;4.810;2023-05-20T04:02:14;12.23;;;6.30;;
37527;SDS011;23372;52.050;4.810;2023-05-20T04:04:40;15.77;;;6.87;;
37527;SDS011;23372;52.050;4.810;2023-05-20T04:07:07;11.80;;;5.87;;
37527;SDS011;23372;52.050;4.810;2023-05-20T04:09:33;11.67;;;5.77;;
37527;SDS011;23372;52.050;4.810;2023-05-20T04:11:59;16.70;;;6.63;;
37527;SDS011;23372;52.050;4.810;2023-05-20T04:14:24;10.00;;;6.13;;
37527;SDS011;23372;52.050;4.810;2023-05-20T04:16:50;15.63;;;5.70;;
37527;SDS011;23372;52.050;4.810;2023-05-20T04:19:16;9.87;;;5.47;;
37527;SDS011;23372;52.050;4.810;2023-05-20T04:21:44;14.53;;;6.77;;
37527;SDS011;23372;52.050;4.810;2023-05-20T04:24:10;10.33;;;5.67;;
37527;SDS011;23372;52.050;4.810;2023-05-20T04:26:35;9.47;;;5.80;;
37527;SDS011;23372;52.050;4.810;2023-05-20T04:29:02;11.20;;;6.20;;
37527;SDS011;23372;52.050;4.810;2023-05-20T04:31:28;12.43;;;5.23;;
37527;SDS011;23372;52.050;4.810;2023-05-20T04:33:55;17.27;;;6.13;;
37527;SDS011;23372;52.050;4.810;2023-05-20T04:36:21;13.47;;;5.63;;
37527;SDS011;23372;52.050;4.810;2023-05-20T04:38:52;13.93;;;5.73;;
37527;SDS011;23372;52.050;4.810;2023-05-20T04:41:18;13.47;;;5.43;;
37527;SDS011;23372;52.050;4.810;2023-05-20T04:43:44;13.93;;;6.10;;
37527;SDS011;23372;52.050;4.810;2023-05-20T04:46:10;11.00;;;6.10;;
37527;SDS011;23372;52.050;4.810;2023-05-20T04:48:35;15.23;;;6.37;;
37527;SDS011;23372;52.050;4.810;2023-05-20T04:51:01;15.43;;;5.60;;
37527;SDS011;23372;52.050;4.810;2023-05-20T04:53:27;13.37;;;5.90;;
37527;SDS011;23372;52.050;4.810;2023-05-20T04:55:54;13.77;;;5.87;;
37527;SDS011;23372;52.050;4.810;2023-05-20T04:58:21;15.57;;;5.90;;
37527;SDS011;23372;52.050;4.810;2023-05-20T05:00:48;12.17;;;5.67;;
37527;SDS011;23372;52.050;4.810;2023-05-20T05:03:15;10.27;;;5.43;;
37527;SDS011;23372;52.050;4.810;2023-05-20T05:05:41;9.67;;;5.43;;
37527;SDS011;23372;52.050;4.810;2023-05-20T05:08:07;12.07;;;5.83;;
37527;SDS011;23372;52.050;4.810;2023-05-20T05:10:33;12.93;;;5.80;;
37527;SDS011;23372;52.050;4.810;2023-05-20T05:13:00;14.97;;;5.70;;
37527;SDS011;23372;52.050;4.810;2023-05-20T05:15:26;16.40;;;7.27;;
37527;SDS011;23372;52.050;4.810;2023-05-20T05:17:52;10.87;;;5.00;;
37527;SDS011;23372;52.050;4.810;2023-05-20T05:20:18;12.63;;;6.13;;
37527;SDS011;23372;52.050;4.810;2023-05-20T05:22:44;9.97;;;5.83;;
37527;SDS011;23372;52.050;4.810;2023-05-20T05:25:10;12.90;;;5.50;;
37527;SDS011;23372;52.050;4.810;2023-05-20T05:27:36;14.13;;;5.87;;
37527;SDS011;23372;52.050;4.810;2023-05-20T05:30:02;15.40;;;5.70;;
37527;SDS011;23372;52.050;4.810;2023-05-20T05:32:29;11.67;;;5.60;;
37527;SDS011;23372;52.050;4.810;2023-05-20T05:34:54;11.27;;;5.97;;
37527;SDS011;23372;52.050;4.810;2023-05-20T05:37:20;11.57;;;6.13;;
37527;SDS011;23372;52.050;4.810;2023-05-20T05:39:46;9.60;;;5.20;;
37527;SDS011;23372;52.050;4.810;2023-05-20T05:42:11;12.13;;;4.63;;
37527;SDS011;23372;52.050;4.810;2023-05-20T05:44:37;9.27;;;4.50;;
37527;SDS011;23372;52.050;4.810;2023-05-20T05:47:03;8.80;;;5.07;;
37527;SDS011;23372;52.050;4.810;2023-05-20T05:49:30;11.73;;;5.20;;
37527;SDS011;23372;52.050;4.810;2023-05-20T05:51:56;11.77;;;5.50;;
37527;SDS011;23372;52.050;4.810;2023-05-20T05:54:22;13.73;;;5.53;;
37527;SDS011;23372;52.050;4.810;2023-05-20T05:56:47;13.33;;;5.40;;
37527;SDS011;23372;52.050;4.810;2023-05-20T05:59:15;10.03;;;5.03;;
37527;SDS011;23372;52.050;4.810;2023-05-20T06:01:41;17.27;;;6.65;;
37527;SDS011;23372;52.050;4.810;2023-05-20T06:04:06;13.10;;;4.70;;
37527;SDS011;23372;52.050;4.810;2023-05-20T06:06:32;10.15;;;4.43;;
37527;SDS011;23372;52.050;4.810;2023-05-20T06:08:57;12.70;;;5.77;;
37527;SDS011;23372;52.050;4.810;2023-05-20T06:11:23;9.05;;;4.60;;
37527;SDS011;23372;52.050;4.810;2023-05-20T06:13:50;13.02;;;5.60;;
37527;SDS011;23372;52.050;4.810;2023-05-20T06:16:15;11.65;;;4.97;;
37527;SDS011;23372;52.050;4.810;2023-05-20T06:18:41;7.72;;;4.55;;
37527;SDS011;23372;52.050;4.810;2023-05-20T06:21:07;7.43;;;4.60;;
37527;SDS011;23372;52.050;4.810;2023-05-20T06:23:33;10.38;;;5.20;;
37527;SDS011;23372;52.050;4.810;2023-05-20T06:25:58;9.98;;;5.53;;
37527;SDS011;23372;52.050;4.810;2023-05-20T06:28:25;9.85;;;4.90;;
37527;SDS011;23372;52.050;4.810;2023-05-20T06:30:51;8.23;;;4.78;;
37527;SDS011;23372;52.050;4.810;2023-05-20T06:33:18;8.52;;;4.68;;
37527;SDS011;23372;52.050;4.810;2023-05-20T06:35:44;11.13;;;4.90;;
37527;SDS011;23372;52.050;4.810;2023-05-20T06:38:10;10.57;;;4.38;;
37527;SDS011;23372;52.050;4.810;2023-05-20T06:40:35;10.85;;;4.55;;
37527;SDS011;23372;52.050;4.810;2023-05-20T06:43:01;20.35;;;5.18;;
37527;SDS011;23372;52.050;4.810;2023-05-20T06:45:27;10.30;;;4.60;;
37527;SDS011;23372;52.050;4.810;2023-05-20T06:47:53;8.95;;;4.25;;
37527;SDS011;23372;52.050;4.810;2023-05-20T06:50:19;8.23;;;4.18;;
37527;SDS011;23372;52.050;4.810;2023-05-20T06:52:44;8.43;;;4.30;;
37527;SDS011;23372;52.050;4.810;2023-05-20T06:55:10;9.75;;;4.03;;
37527;SDS011;23372;52.050;4.810;2023-05-20T06:57:35;7.22;;;3.67;;
37527;SDS011;23372;52.050;4.810;2023-05-20T07:00:02;8.32;;;4.05;;
37527;SDS011;23372;52.050;4.810;2023-05-20T07:02:29;7.65;;;3.85;;
37527;SDS011;23372;52.050;4.810;2023-05-20T07:04:57;7.75;;;4.28;;
37527;SDS011;23372;52.050;4.810;2023-05-20T07:07:22;7.78;;;3.75;;
37527;SDS011;23372;52.050;4.810;2023-05-20T07:09:48;12.00;;;3.92;;
37527;SDS011;23372;52.050;4.810;2023-05-20T07:12:13;11.88;;;3.58;;
37527;SDS011;23372;52.050;4.810;2023-05-20T07:14:39;7.78;;;4.13;;
37527;SDS011;23372;52.050;4.810;2023-05-20T07:17:05;10.80;;;4.07;;
37527;SDS011;23372;52.050;4.810;2023-05-20T07:19:30;7.65;;;3.92;;
37527;SDS011;23372;52.050;4.810;2023-05-20T07:21:57;7.22;;;3.67;;
37527;SDS011;23372;52.050;4.810;2023-05-20T07:24:23;5.57;;;3.15;;
37527;SDS011;23372;52.050;4.810;2023-05-20T07:26:48;6.85;;;3.50;;
37527;SDS011;23372;52.050;4.810;2023-05-20T07:29:14;8.73;;;3.47;;
37527;SDS011;23372;52.050;4.810;2023-05-20T07:31:40;8.27;;;3.60;;
37527;SDS011;23372;52.050;4.810;2023-05-20T07:34:05;7.32;;;3.70;;
37527;SDS011;23372;52.050;4.810;2023-05-20T07:36:31;11.85;;;4.22;;
37527;SDS011;23372;52.050;4.810;2023-05-20T07:38:57;6.90;;;3.13;;
37527;SDS011;23372;52.050;4.810;2023-05-20T07:41:22;6.40;;;3.05;;
37527;SDS011;23372;52.050;4.810;2023-05-20T07:43:48;5.97;;;3.33;;
37527;SDS011;23372;52.050;4.810;2023-05-20T07:46:14;10.65;;;3.15;;
37527;SDS011;23372;52.050;4.810;2023-05-20T07:48:40;7.38;;;3.50;;
37527;SDS011;23372;52.050;4.810;2023-05-20T07:51:06;6.45;;;3.00;;
37527;SDS011;23372;52.050;4.810;2023-05-20T07:53:31;7.15;;;3.47;;
37527;SDS011;23372;52.050;4.810;2023-05-20T07:55:57;8.48;;;3.63;;
37527;SDS011;23372;52.050;4.810;2023-05-20T07:58:23;9.82;;;3.60;;
37527;SDS011;23372;52.050;4.810;2023-05-20T08:00:49;7.35;;;4.10;;
37527;SDS011;23372;52.050;4.810;2023-05-20T08:03:14;6.38;;;3.05;;
37527;SDS011;23372;52.050;4.810;2023-05-20T08:05:41;8.07;;;4.03;;
37527;SDS011;23372;52.050;4.810;2023-05-20T08:08:06;8.50;;;3.78;;
37527;SDS011;23372;52.050;4.810;2023-05-20T08:10:34;6.45;;;3.80;;
37527;SDS011;23372;52.050;4.810;2023-05-20T08:13:00;7.38;;;3.67;;
37527;SDS011;23372;52.050;4.810;2023-05-20T08:15:26;7.35;;;3.40;;
37527;SDS011;23372;52.050;4.810;2023-05-20T08:17:51;7.93;;;3.85;;
37527;SDS011;23372;52.050;4.810;2023-05-20T08:20:17;6.35;;;3.10;;
37527;SDS011;23372;52.050;4.810;2023-05-20T08:22:43;7.40;;;3.15;;
37527;SDS011;23372;52.050;4.810;2023-05-20T08:25:09;4.63;;;3.40;;
37527;SDS011;23372;52.050;4.810;2023-05-20T08:27:35;6.85;;;3.30;;
37527;SDS011;23372;52.050;4.810;2023-05-20T08:30:01;7.95;;;3.33;;
37527;SDS011;23372;52.050;4.810;2023-05-20T08:32:28;6.80;;;3.22;;
37527;SDS011;23372;52.050;4.810;2023-05-20T08:34:53;4.45;;;2.90;;
37527;SDS011;23372;52.050;4.810;2023-05-20T08:37:19;7.18;;;2.70;;
37527;SDS011;23372;52.050;4.810;2023-05-20T08:39:45;5.07;;;2.35;;
37527;SDS011;23372;52.050;4.810;2023-05-20T08:42:12;5.50;;;2.45;;
37527;SDS011;23372;52.050;4.810;2023-05-20T08:44:37;6.30;;;2.75;;
37527;SDS011;23372;52.050;4.810;2023-05-20T08:47:04;9.52;;;3.17;;
37527;SDS011;23372;52.050;4.810;2023-05-20T08:49:31;9.63;;;2.45;;
37527;SDS011;23372;52.050;4.810;2023-05-20T08:51:57;5.63;;;2.47;;
37527;SDS011;23372;52.050;4.810;2023-05-20T08:54:25;4.20;;;2.40;;
37527;SDS011;23372;52.050;4.810;2023-05-20T08:56:57;4.45;;;2.45;;
37527;SDS011;23372;52.050;4.810;2023-05-20T08:59:24;4.30;;;2.30;;
37527;SDS011;23372;52.050;4.810;2023-05-20T09:01:50;5.22;;;1.88;;
37527;SDS011;23372;52.050;4.810;2023-05-20T09:04:15;5.60;;;2.25;;
37527;SDS011;23372;52.050;4.810;2023-05-20T09:06:44;7.82;;;2.30;;
37527;SDS011;23372;52.050;4.810;2023-05-20T09:09:13;5.55;;;2.33;;
37527;SDS011;23372;52.050;4.810;2023-05-20T09:11:40;6.13;;;2.35;;
37527;SDS011;23372;52.050;4.810;2023-05-20T09:14:06;4.38;;;2.08;;
37527;SDS011;23372;52.050;4.810;2023-05-20T09:16:32;3.55;;;1.70;;
37527;SDS011;23372;52.050;4.810;2023-05-20T09:18:58;4.63;;;2.03;;
37527;SDS011;23372;52.050;4.810;2023-05-20T09:21:27;6.03;;;2.15;;
37527;SDS011;23372;52.050;4.810;2023-05-20T09:23:53;4.57;;;2.00;;
37527;SDS011;23372;52.050;4.810;2023-05-20T09:26:21;4.97;;;2.17;;
37527;SDS011;23372;52.050;4.810;2023-05-20T09:28:48;4.30;;;1.95;;
37527;SDS011;23372;52.050;4.810;2023-05-20T09:31:15;3.42;;;2.10;;
37527;SDS011;23372;52.050;4.810;2023-05-20T09:33:41;6.20;;;1.92;;
37527;SDS011;23372;52.050;4.810;2023-05-20T09:36:07;5.95;;;1.73;;
37527;SDS011;23372;52.050;4.810;2023-05-20T09:38:34;5.40;;;1.90;;
37527;SDS011;23372;52.050;4.810;2023-05-20T09:41:03;3.95;;;1.60;;
37527;SDS011;23372;52.050;4.810;2023-05-20T09:43:35;4.43;;;2.05;;
37527;SDS011;23372;52.050;4.810;2023-05-20T09:46:01;5.13;;;2.00;;
37527;SDS011;23372;52.050;4.810;2023-05-20T09:48:28;2.58;;;1.85;;
37527;SDS011;23372;52.050;4.810;2023-05-20T09:50:55;6.07;;;2.05;;
37527;SDS011;23372;52.050;4.810;2023-05-20T09:53:22;3.33;;;1.75;;
37527;SDS011;23372;52.050;4.810;2023-05-20T09:55:52;5.18;;;1.75;;
37527;SDS011;23372;52.050;4.810;2023-05-20T09:58:19;4.28;;;1.70;;
37527;SDS011;23372;52.050;4.810;2023-05-20T10:00:44;4.15;;;1.90;;
37527;SDS011;23372;52.050;4.810;2023-05-20T10:03:10;2.60;;;1.73;;
37527;SDS011;23372;52.050;4.810;2023-05-20T10:05:39;5.53;;;1.90;;
37527;SDS011;23372;52.050;4.810;2023-05-20T10:08:18;4.78;;;1.55;;
37527;SDS011;23372;52.050;4.810;2023-05-20T10:16:32;5.15;;;1.50;;
37527;SDS011;23372;52.050;4.810;2023-05-20T10:19:28;4.13;;;1.55;;
37527;SDS011;23372;52.050;4.810;2023-05-20T10:22:00;5.53;;;1.83;;
37527;SDS011;23372;52.050;4.810;2023-05-20T10:27:06;6.40;;;2.08;;
37527;SDS011;23372;52.050;4.810;2023-05-20T10:32:47;6.63;;;2.28;;
37527;SDS011;23372;52.050;4.810;2023-05-20T10:35:20;4.28;;;2.05;;
37527;SDS011;23372;52.050;4.810;2023-05-20T10:37:47;12.07;;;1.98;;
37527;SDS011;23372;52.050;4.810;2023-05-20T10:40:13;3.70;;;1.70;;
37527;SDS011;23372;52.050;4.810;2023-05-20T10:42:40;3.50;;;1.40;;
37527;SDS011;23372;52.050;4.810;2023-05-20T10:45:06;3.97;;;1.45;;
37527;SDS011;23372;52.050;4.810;2023-05-20T10:47:33;3.72;;;1.55;;
37527;SDS011;23372;52.050;4.810;2023-05-20T10:50:00;7.65;;;3.05;;
37527;SDS011;23372;52.050;4.810;2023-05-20T10:52:40;7.53;;;1.95;;
37527;SDS011;23372;52.050;4.810;2023-05-20T10:55:06;4.97;;;1.92;;
37527;SDS011;23372;52.050;4.810;2023-05-20T10:57:44;4.53;;;1.83;;
37527;SDS011;23372;52.050;4.810;2023-05-20T11:00:10;6.15;;;1.63;;
37527;SDS011;23372;52.050;4.810;2023-05-20T11:02:36;7.80;;;1.90;;
37527;SDS011;23372;52.050;4.810;2023-05-20T11:05:02;4.85;;;1.77;;
37527;SDS011;23372;52.050;4.810;2023-05-20T11:07:29;9.00;;;1.90;;
37527;SDS011;23372;52.050;4.810;2023-05-20T11:09:55;6.63;;;1.95;;
37527;SDS011;23372;52.050;4.810;2023-05-20T11:12:22;2.67;;;2.03;;
37527;SDS011;23372;52.050;4.810;2023-05-20T11:14:50;3.47;;;1.88;;
37527;SDS011;23372;52.050;4.810;2023-05-20T11:17:15;6.80;;;2.17;;
37527;SDS011;23372;52.050;4.810;2023-05-20T11:19:42;8.85;;;2.05;;
37527;SDS011;23372;52.050;4.810;2023-05-20T11:22:08;6.78;;;2.10;;
37527;SDS011;23372;52.050;4.810;2023-05-20T11:24:33;4.22;;;1.50;;
37527;SDS011;23372;52.050;4.810;2023-05-20T11:27:00;3.45;;;1.58;;
37527;SDS011;23372;52.050;4.810;2023-05-20T11:29:26;4.05;;;1.83;;
37527;SDS011;23372;52.050;4.810;2023-05-20T11:31:53;6.60;;;1.80;;
37527;SDS011;23372;52.050;4.810;2023-05-20T11:34:19;5.65;;;1.90;;
37527;SDS011;23372;52.050;4.810;2023-05-20T11:36:46;4.10;;;1.90;;
37527;SDS011;23372;52.050;4.810;2023-05-20T11:39:14;3.35;;;1.80;;
37527;SDS011;23372;52.050;4.810;2023-05-20T11:41:40;3.42;;;1.95;;
37527;SDS011;23372;52.050;4.810;2023-05-20T11:44:09;3.25;;;2.00;;
37527;SDS011;23372;52.050;4.810;2023-05-20T11:46:40;3.22;;;2.10;;
37527;SDS011;23372;52.050;4.810;2023-05-20T11:49:06;2.50;;;1.80;;
37527;SDS011;23372;52.050;4.810;2023-05-20T11:51:32;3.55;;;2.00;;
37527;SDS011;23372;52.050;4.810;2023-05-20T11:53:59;5.20;;;2.00;;
37527;SDS011;23372;52.050;4.810;2023-05-20T11:56:28;5.47;;;1.70;;
37527;SDS011;23372;52.050;4.810;2023-05-20T11:58:58;4.22;;;2.03;;
37527;SDS011;23372;52.050;4.810;2023-05-20T12:01:25;6.93;;;2.13;;
37527;SDS011;23372;52.050;4.810;2023-05-20T12:03:52;6.15;;;1.92;;
37527;SDS011;23372;52.050;4.810;2023-05-20T12:06:18;6.13;;;2.10;;
37527;SDS011;23372;52.050;4.810;2023-05-20T12:08:43;5.47;;;1.95;;
37527;SDS011;23372;52.050;4.810;2023-05-20T12:11:10;6.25;;;2.38;;
37527;SDS011;23372;52.050;4.810;2023-05-20T12:13:36;5.65;;;1.90;;
37527;SDS011;23372;52.050;4.810;2023-05-20T12:16:02;4.85;;;1.80;;
37527;SDS011;23372;52.050;4.810;2023-05-20T12:18:29;4.80;;;2.17;;
37527;SDS011;23372;52.050;4.810;2023-05-20T12:20:55;5.45;;;1.77;;
37527;SDS011;23372;52.050;4.810;2023-05-20T12:23:21;4.10;;;1.88;;
37527;SDS011;23372;52.050;4.810;2023-05-20T12:25:46;3.85;;;1.80;;
37527;SDS011;23372;52.050;4.810;2023-05-20T12:28:13;4.28;;;1.60;;
37527;SDS011;23372;52.050;4.810;2023-05-20T12:30:40;5.00;;;2.25;;
37527;SDS011;23372;52.050;4.810;2023-05-20T12:33:05;3.85;;;1.90;;
37527;SDS011;23372;52.050;4.810;2023-05-20T12:35:38;4.30;;;1.90;;
37527;SDS011;23372;52.050;4.810;2023-05-20T12:38:05;7.32;;;2.13;;
37527;SDS011;23372;52.050;4.810;2023-05-20T12:40:31;4.70;;;2.00;;
37527;SDS011;23372;52.050;4.810;2023-05-20T12:42:57;3.75;;;2.35;;
37527;SDS011;23372;52.050;4.810;2023-05-20T12:45:23;7.10;;;1.75;;
37527;SDS011;23372;52.050;4.810;2023-05-20T12:47:49;6.18;;;1.67;;
37527;SDS011;23372;52.050;4.810;2023-05-20T12:50:15;3.00;;;1.80;;
37527;SDS011;23372;52.050;4.810;2023-05-20T12:52:41;3.08;;;1.67;;
37527;SDS011;23372;52.050;4.810;2023-05-20T12:55:07;4.15;;;1.90;;
37527;SDS011;23372;52.050;4.810;2023-05-20T12:57:41;5.53;;;1.77;;
37527;SDS011;23372;52.050;4.810;2023-05-20T13:00:09;2.90;;;1.70;;
37527;SDS011;23372;52.050;4.810;2023-05-20T13:02:35;2.33;;;1.65;;
37527;SDS011;23372;52.050;4.810;2023-05-20T13:05:01;3.35;;;1.70;;
37527;SDS011;23372;52.050;4.810;2023-05-20T13:07:27;5.55;;;1.80;;
37527;SDS011;23372;52.050;4.810;2023-05-20T13:09:53;4.07;;;1.70;;
37527;SDS011;23372;52.050;4.810;2023-05-20T13:12:18;3.85;;;1.63;;
37527;SDS011;23372;52.050;4.810;2023-05-20T13:14:44;3.55;;;1.58;;
37527;SDS011;23372;52.050;4.810;2023-05-20T13:17:10;3.30;;;1.50;;
37527;SDS011;23372;52.050;4.810;2023-05-20T13:19:36;2.45;;;1.63;;
37527;SDS011;23372;52.050;4.810;2023-05-20T13:22:02;3.13;;;1.50;;
37527;SDS011;23372;52.050;4.810;2023-05-20T13:24:30;3.45;;;1.80;;
37527;SDS011;23372;52.050;4.810;2023-05-20T13:26:55;3.47;;;1.80;;
37527;SDS011;23372;52.050;4.810;2023-05-20T13:29:21;3.22;;;1.60;;
37527;SDS011;23372;52.050;4.810;2023-05-20T13:31:47;5.28;;;1.95;;
37527;SDS011;23372;52.050;4.810;2023-05-20T13:34:13;3.63;;;1.52;;
37527;SDS011;23372;52.050;4.810;2023-05-20T13:36:38;4.07;;;1.67;;
37527;SDS011;23372;52.050;4.810;2023-05-20T13:39:04;3.58;;;1.75;;
37527;SDS011;23372;52.050;4.810;2023-05-20T13:41:30;4.50;;;1.63;;
37527;SDS011;23372;52.050;4.810;2023-05-20T13:43:56;3.33;;;1.90;;
37527;SDS011;23372;52.050;4.810;2023-05-20T13:46:22;4.13;;;1.95;;
37527;SDS011;23372;52.050;4.810;2023-05-20T13:48:48;8.07;;;2.08;;
37527;SDS011;23372;52.050;4.810;2023-05-20T13:51:13;4.38;;;1.67;;
37527;SDS011;23372;52.050;4.810;2023-05-20T13:53:39;4.90;;;1.70;;
37527;SDS011;23372;52.050;4.810;2023-05-20T13:56:05;4.60;;;1.63;;
37527;SDS011;23372;52.050;4.810;2023-05-20T13:58:33;5.43;;;1.63;;
37527;SDS011;23372;52.050;4.810;2023-05-20T14:00:59;5.65;;;1.60;;
37527;SDS011;23372;52.050;4.810;2023-05-20T14:03:25;4.63;;;1.98;;
37527;SDS011;23372;52.050;4.810;2023-05-20T14:05:51;3.38;;;2.10;;
37527;SDS011;23372;52.050;4.810;2023-05-20T14:08:17;3.35;;;1.63;;
37527;SDS011;23372;52.050;4.810;2023-05-20T14:10:42;6.55;;;2.10;;
37527;SDS011;23372;52.050;4.810;2023-05-20T14:13:08;7.18;;;1.90;;
37527;SDS011;23372;52.050;4.810;2023-05-20T14:15:34;21.92;;;3.35;;
37527;SDS011;23372;52.050;4.810;2023-05-20T14:18:00;4.35;;;1.63;;
37527;SDS011;23372;52.050;4.810;2023-05-20T14:20:26;4.35;;;1.80;;
37527;SDS011;23372;52.050;4.810;2023-05-20T14:22:51;2.83;;;1.70;;
37527;SDS011;23372;52.050;4.810;2023-05-20T14:25:17;3.83;;;1.38;;
37527;SDS011;23372;52.050;4.810;2023-05-20T14:27:43;4.68;;;1.58;;
37527;SDS011;23372;52.050;4.810;2023-05-20T14:30:08;5.03;;;1.90;;
37527;SDS011;23372;52.050;4.810;2023-05-20T14:32:34;4.45;;;1.67;;
37527;SDS011;23372;52.050;4.810;2023-05-20T14:35:00;4.28;;;1.73;;
37527;SDS011;23372;52.050;4.810;2023-05-20T14:37:25;4.72;;;1.63;;
37527;SDS011;23372;52.050;4.810;2023-05-20T14:39:52;5.60;;;1.70;;
37527;SDS011;23372;52.050;4.810;2023-05-20T14:42:18;2.08;;;1.58;;
37527;SDS011;23372;52.050;4.810;2023-05-20T14:44:44;7.63;;;1.67;;
37527;SDS011;23372;52.050;4.810;2023-05-20T14:47:09;7.28;;;1.60;;
37527;SDS011;23372;52.050;4.810;2023-05-20T14:49:35;3.78;;;1.55;;